createdAt,value
2023-03-26T00:01:46.833Z,11.33
2023-03-26T00:04:21.938Z,11.31
2023-03-26T00:06:51.301Z,11.11
2023-03-26T00:09:19.840Z,11.21
2023-03-26T00:11:52.291Z,11.28
2023-03-26T00:14:25.353Z,11.29
2023-03-26T00:16:55.115Z,11.11
2023-03-26T00:19:25.549Z,11.16
2023-03-26T00:21:54.358Z,11.25
2023-03-26T00:24:29.920Z,11.27
2023-03-26T00:27:04.709Z,11.30
2023-03-26T00:29:37.572Z,11.21
2023-03-26T00:32:06.462Z,11.27
2023-03-26T00:34:35.730Z,11.29
2023-03-26T00:37:04.443Z,11.32
2023-03-26T00:39:35.920Z,11.19
2023-03-26T00:42:07.114Z,11.09
2023-03-26T00:44:35.751Z,11.28
2023-03-26T00:47:04.519Z,11.02
2023-03-26T00:49:33.518Z,11.26
2023-03-26T00:52:04.276Z,11.37
2023-03-26T00:54:33.323Z,11.46
2023-03-26T00:57:07.074Z,11.52
2023-03-26T00:59:36.521Z,11.42
2023-03-26T01:02:05.224Z,11.39
2023-03-26T01:04:35.319Z,11.36
2023-03-26T01:07:10.402Z,11.05
2023-03-26T01:09:43.041Z,11.14
2023-03-26T01:12:22.459Z,11.22
2023-03-26T01:14:52.065Z,11.12
2023-03-26T01:17:22.186Z,11.15
2023-03-26T01:20:05.885Z,11.12
2023-03-26T01:22:35.007Z,11.08
2023-03-26T01:25:04.071Z,11.15
2023-03-26T01:27:52.568Z,11.25
2023-03-26T01:30:41.762Z,11.40
2023-03-26T01:33:41.503Z,11.30
2023-03-26T01:36:35.024Z,11.08
2023-03-26T01:39:39.050Z,10.80
2023-03-26T01:42:11.206Z,11.02
2023-03-26T01:44:59.943Z,11.00
2023-03-26T01:47:28.915Z,10.68
2023-03-26T01:49:57.473Z,10.96
2023-03-26T01:52:26.545Z,11.11
2023-03-26T01:54:56.449Z,11.08
2023-03-26T01:57:49.502Z,11.21
2023-03-26T02:00:33.094Z,11.40
2023-03-26T02:03:18.278Z,11.45
2023-03-26T02:06:08.077Z,11.38
2023-03-26T02:09:08.230Z,11.46
2023-03-26T02:11:37.206Z,11.30
2023-03-26T02:14:08.670Z,11.35
2023-03-26T02:16:37.559Z,11.35
2023-03-26T02:19:15.976Z,11.42
2023-03-26T02:21:46.173Z,11.45
2023-03-26T02:24:14.930Z,11.39
2023-03-26T02:26:43.467Z,11.26
2023-03-26T02:29:14.607Z,11.15
2023-03-26T02:31:51.253Z,11.25
2023-03-26T02:34:20.099Z,11.28
2023-03-26T02:36:53.004Z,11.26
2023-03-26T02:39:22.038Z,11.18
2023-03-26T02:42:03.503Z,11.31
2023-03-26T02:44:34.029Z,11.38
2023-03-26T02:47:02.570Z,11.33
2023-03-26T02:49:39.387Z,11.31
2023-03-26T02:52:08.216Z,11.14
2023-03-26T02:54:38.577Z,10.75
2023-03-26T02:57:16.916Z,10.70
2023-03-26T03:00:16.127Z,10.68
2023-03-26T03:02:48.882Z,10.82
2023-03-26T03:05:33.052Z,10.62
2023-03-26T03:08:29.523Z,10.71
2023-03-26T03:11:11.693Z,10.73
2023-03-26T03:13:49.865Z,10.47
2023-03-26T03:16:23.252Z,10.59
2023-03-26T03:18:58.132Z,10.78
2023-03-26T03:21:38.560Z,10.79
2023-03-26T03:24:09.503Z,10.80
2023-03-26T03:26:42.576Z,10.88
2023-03-26T03:29:25.578Z,10.78
2023-03-26T03:31:55.803Z,10.46
2023-03-26T03:34:44.270Z,10.74
2023-03-26T03:37:13.273Z,10.64
2023-03-26T03:39:49.514Z,10.74
2023-03-26T03:42:20.722Z,10.71
2023-03-26T03:44:50.255Z,10.75
2023-03-26T03:47:47.738Z,10.74
2023-03-26T03:50:20.131Z,10.88
2023-03-26T03:52:59.469Z,10.82
2023-03-26T03:55:28.392Z,10.84
2023-03-26T03:58:00.191Z,10.78
2023-03-26T04:00:32.588Z,10.83
2023-03-26T04:03:16.698Z,10.87
2023-03-26T04:05:49.809Z,10.62
2023-03-26T04:08:18.784Z,10.40
2023-03-26T04:10:51.299Z,10.42
2023-03-26T04:13:40.598Z,10.41
2023-03-26T04:16:27.635Z,10.50
2023-03-26T04:19:02.414Z,10.44
2023-03-26T04:21:32.296Z,10.18
2023-03-26T04:24:01.944Z,10.30
2023-03-26T04:26:53.594Z,10.46
2023-03-26T04:29:28.232Z,10.40
2023-03-26T04:32:06.855Z,10.41
2023-03-26T04:34:36.930Z,10.52
2023-03-26T04:37:19.212Z,10.46
2023-03-26T04:39:55.545Z,10.56
2023-03-26T04:42:46.367Z,10.68
2023-03-26T04:45:25.931Z,10.52
2023-03-26T04:47:58.494Z,10.04
2023-03-26T04:50:27.347Z,10.33
2023-03-26T04:52:57.039Z,10.43
2023-03-26T04:56:09.064Z,10.39
2023-03-26T04:58:57.186Z,10.39
2023-03-26T05:01:28.607Z,10.49
2023-03-26T05:03:58.872Z,10.58
2023-03-26T05:06:29.052Z,10.49
2023-03-26T05:08:58.042Z,10.38
2023-03-26T05:11:43.910Z,10.55
2023-03-26T05:14:12.670Z,10.72
2023-03-26T05:16:45.083Z,10.77
2023-03-26T05:19:13.906Z,10.79
2023-03-26T05:21:42.427Z,10.61
2023-03-26T05:24:11.044Z,10.27
2023-03-26T05:26:39.954Z,10.52
2023-03-26T05:29:09.428Z,10.58
2023-03-26T05:31:46.476Z,10.73
2023-03-26T05:34:15.609Z,10.48
2023-03-26T05:36:45.831Z,10.68
2023-03-26T05:39:34.156Z,10.67
2023-03-26T05:42:26.311Z,10.53
2023-03-26T05:45:08.516Z,10.43
2023-03-26T05:47:37.639Z,10.64
2023-03-26T05:50:09.223Z,10.84
2023-03-26T05:52:40.879Z,10.99
2023-03-26T05:55:46.160Z,11.11
2023-03-26T05:58:34.061Z,11.00
2023-03-26T06:01:08.798Z,10.76
2023-03-26T06:04:03.040Z,10.92
2023-03-26T06:06:36.466Z,10.82
2023-03-26T06:09:05.440Z,10.89
2023-03-26T06:11:34.500Z,10.72
2023-03-26T06:14:09.280Z,10.92
2023-03-26T06:16:41.151Z,11.11
2023-03-26T06:19:23.153Z,11.02
2023-03-26T06:22:00.579Z,11.04
2023-03-26T06:24:39.096Z,11.14
2023-03-26T06:27:11.430Z,11.32
2023-03-26T06:30:07.355Z,11.36
2023-03-26T06:32:44.182Z,11.36
2023-03-26T06:35:18.641Z,11.54
2023-03-26T06:37:47.688Z,11.64
2023-03-26T06:40:16.771Z,11.60
2023-03-26T06:43:08.625Z,11.75
2023-03-26T06:45:57.645Z,11.98
2023-03-26T06:48:56.282Z,12.14
2023-03-26T06:51:46.757Z,12.30
2023-03-26T06:54:47.944Z,12.45
2023-03-26T06:57:35.630Z,12.04
2023-03-26T07:00:25.776Z,12.19
2023-03-26T07:03:13.930Z,12.35
2023-03-26T07:06:04.850Z,11.87
2023-03-26T07:08:52.537Z,11.98
2023-03-26T07:11:40.380Z,12.02
2023-03-26T07:14:32.963Z,12.22
2023-03-26T07:17:27.355Z,12.28
2023-03-26T07:20:07.412Z,12.28
2023-03-26T07:22:37.318Z,12.43
2023-03-26T07:25:06.827Z,12.53
2023-03-26T07:28:18.520Z,12.68
2023-03-26T07:31:37.889Z,12.66
2023-03-26T07:34:54.104Z,12.78
2023-03-26T07:37:32.158Z,12.74
2023-03-26T07:40:35.087Z,12.61
2023-03-26T07:43:59.076Z,12.61
2023-03-26T07:46:48.206Z,12.74
2023-03-26T07:49:35.521Z,12.71
2023-03-26T07:52:19.436Z,12.61
2023-03-26T07:55:05.386Z,12.68
2023-03-26T07:58:01.469Z,12.83
2023-03-26T08:00:46.842Z,12.92
2023-03-26T08:03:49.237Z,12.98
2023-03-26T08:06:39.570Z,12.92
2023-03-26T08:09:46.670Z,12.97
2023-03-26T08:12:49.600Z,13.22
2023-03-26T08:15:32.920Z,13.38
2023-03-26T08:18:20.225Z,13.48
2023-03-26T08:20:54.620Z,13.42
2023-03-26T08:23:28.108Z,13.55
2023-03-26T08:26:17.628Z,13.63
2023-03-26T08:28:53.135Z,13.58
2023-03-26T08:31:27.823Z,13.48
2023-03-26T08:33:56.608Z,13.26
2023-03-26T08:36:26.954Z,13.06
2023-03-26T08:38:55.628Z,13.09
2023-03-26T08:41:50.837Z,13.11
2023-03-26T08:44:51.864Z,13.22
2023-03-26T08:47:47.045Z,13.35
2023-03-26T08:50:28.470Z,13.30
2023-03-26T08:53:10.581Z,13.15
2023-03-26T08:56:04.721Z,13.08
2023-03-26T08:58:53.246Z,13.22
2023-03-26T09:01:45.753Z,13.25
2023-03-26T09:04:30.075Z,13.38
2023-03-26T09:07:10.224Z,13.31
2023-03-26T09:09:54.432Z,13.16
2023-03-26T09:12:45.461Z,13.07
2023-03-26T09:15:51.578Z,13.27
2023-03-26T09:18:35.837Z,13.30
2023-03-26T09:21:21.749Z,13.43
2023-03-26T09:24:12.276Z,13.47
2023-03-26T09:27:02.534Z,13.46
2023-03-26T09:29:52.045Z,13.50
2023-03-26T09:32:39.871Z,13.62
2023-03-26T09:35:28.010Z,13.81
2023-03-26T09:38:01.251Z,13.93
2023-03-26T09:40:42.741Z,13.91
2023-03-26T09:43:32.561Z,13.97
2023-03-26T09:46:30.969Z,13.95
2023-03-26T09:49:08.337Z,13.88
2023-03-26T09:52:03.544Z,13.54
2023-03-26T09:54:48.703Z,13.65
2023-03-26T09:57:34.573Z,13.79
2023-03-26T10:00:07.730Z,13.91
2023-03-26T10:02:47.039Z,13.94
2023-03-26T10:05:20.327Z,13.88
2023-03-26T10:07:51.393Z,13.75
2023-03-26T10:10:26.002Z,13.75
2023-03-26T10:13:22.173Z,13.85
2023-03-26T10:16:06.684Z,13.85
2023-03-26T10:18:53.652Z,13.82
2023-03-26T10:21:44.616Z,13.97
2023-03-26T10:24:31.150Z,13.95
2023-03-26T10:27:09.838Z,13.90
2023-03-26T10:30:02.387Z,13.96
2023-03-26T10:32:49.209Z,13.99
2023-03-26T10:35:30.545Z,13.99
2023-03-26T10:38:02.517Z,13.73
2023-03-26T10:40:55.716Z,13.37
2023-03-26T10:43:31.426Z,13.57
2023-03-26T10:46:05.415Z,13.71
2023-03-26T10:48:53.681Z,13.81
2023-03-26T10:51:39.874Z,13.75
2023-03-26T10:54:20.529Z,13.63
2023-03-26T10:56:50.376Z,13.34
2023-03-26T10:59:19.420Z,13.48
2023-03-26T11:02:35.973Z,13.73
2023-03-26T11:05:26.156Z,14.01
2023-03-26T11:08:18.206Z,14.16
2023-03-26T11:10:56.325Z,14.37
2023-03-26T11:13:30.171Z,14.56
2023-03-26T11:16:14.806Z,14.61
2023-03-26T11:18:55.888Z,14.67
2023-03-26T11:21:48.748Z,14.72
2023-03-26T11:24:24.370Z,14.80
2023-03-26T11:27:15.543Z,14.92
2023-03-26T11:29:52.738Z,14.86
2023-03-26T11:32:23.986Z,14.85
2023-03-26T11:35:04.444Z,14.91
2023-03-26T11:38:20.654Z,14.95
2023-03-26T11:40:53.281Z,14.96
2023-03-26T11:43:36.581Z,14.92
2023-03-26T11:46:07.963Z,14.88
2023-03-26T11:48:40.752Z,14.94
2023-03-26T11:51:20.686Z,14.91
2023-03-26T11:53:49.525Z,14.83
2023-03-26T11:56:23.931Z,14.77
2023-03-26T11:58:58.263Z,14.21
2023-03-26T12:01:44.409Z,14.19
2023-03-26T12:04:14.786Z,14.39
2023-03-26T12:06:59.920Z,14.47
2023-03-26T12:09:28.602Z,14.58
2023-03-26T12:12:03.354Z,14.49
2023-03-26T12:14:34.328Z,14.52
2023-03-26T12:17:12.124Z,14.61
2023-03-26T12:19:44.354Z,14.61
2023-03-26T12:22:39.008Z,14.56
2023-03-26T12:25:21.594Z,14.61
2023-03-26T12:27:59.233Z,14.57
2023-03-26T12:30:30.981Z,14.47
2023-03-26T12:33:06.288Z,14.48
2023-03-26T12:35:35.425Z,14.49
2023-03-26T12:38:22.437Z,14.43
2023-03-26T12:43:40.263Z,14.38
2023-03-26T12:44:56.100Z,14.41
2023-03-26T12:47:57.154Z,14.50
2023-03-26T12:49:48.215Z,14.50
2023-03-26T12:52:25.979Z,14.54
2023-03-26T12:55:01.324Z,14.52
2023-03-26T12:57:44.724Z,14.41
2023-03-26T13:00:14.281Z,14.38
2023-03-26T13:02:50.807Z,14.37
2023-03-26T13:05:32.700Z,14.30
2023-03-26T13:08:32.922Z,14.26
2023-03-26T13:11:01.490Z,14.27
2023-03-26T13:13:41.409Z,14.36
2023-03-26T13:16:13.794Z,14.41
2023-03-26T13:18:57.128Z,14.39
2023-03-26T13:21:30.722Z,14.47
2023-03-26T13:24:31.073Z,14.52
2023-03-26T13:27:18.603Z,14.49
2023-03-26T13:29:56.712Z,14.48
2023-03-26T13:32:43.297Z,14.52
2023-03-26T13:35:39.751Z,14.55
2023-03-26T13:38:37.247Z,14.58
2023-03-26T13:41:09.812Z,14.48
2023-03-26T13:43:51.386Z,14.51
2023-03-26T13:46:31.303Z,14.53
2023-03-26T13:49:04.001Z,14.53
2023-03-26T13:51:43.682Z,14.46
2023-03-26T13:54:23.935Z,14.35
2023-03-26T13:56:57.842Z,14.24
2023-03-26T13:59:47.483Z,14.24
2023-03-26T14:02:21.970Z,14.25
2023-03-26T14:04:53.800Z,14.25
2023-03-26T14:07:27.946Z,14.28
2023-03-26T14:10:10.432Z,14.32
2023-03-26T14:13:15.301Z,14.39
2023-03-26T14:16:03.650Z,14.43
2023-03-26T14:18:47.707Z,14.51
2023-03-26T14:21:44.445Z,14.56
2023-03-26T14:24:53.673Z,14.63
2023-03-26T14:27:22.329Z,14.69
2023-03-26T14:29:58.973Z,14.72
2023-03-26T14:32:40.048Z,14.83
2023-03-26T14:35:26.652Z,14.81
2023-03-26T14:38:13.325Z,14.65
2023-03-26T14:40:58.835Z,14.48
2023-03-26T14:43:46.623Z,14.39
2023-03-26T14:46:25.191Z,13.97
2023-03-26T14:49:03.856Z,14.06
2023-03-26T14:51:59.606Z,14.12
2023-03-26T14:54:35.635Z,14.20
2023-03-26T14:57:10.045Z,14.16
2023-03-26T14:59:44.575Z,14.14
2023-03-26T15:02:35.192Z,13.94
2023-03-26T15:05:22.421Z,13.93
2023-03-26T15:08:33.732Z,14.07
2023-03-26T15:11:21.748Z,14.15
2023-03-26T15:14:38.195Z,14.20
2023-03-26T15:17:31.241Z,14.23
2023-03-26T15:20:36.927Z,14.14
2023-03-26T15:23:43.154Z,14.01
2023-03-26T15:26:43.205Z,13.94
2023-03-26T15:29:46.112Z,13.88
2023-03-26T15:32:36.994Z,13.70
2023-03-26T15:35:35.056Z,13.56
2023-03-26T15:38:31.799Z,13.58
2023-03-26T15:41:19.635Z,13.66
2023-03-26T15:44:23.941Z,13.71
2023-03-26T15:47:32.049Z,13.75
2023-03-26T15:50:19.434Z,13.54
2023-03-26T15:53:09.930Z,13.45
2023-03-26T15:55:46.144Z,13.52
2023-03-26T15:58:37.040Z,13.61
2023-03-26T16:01:19.267Z,13.63
2023-03-26T16:04:06.441Z,13.65
2023-03-26T16:06:41.825Z,13.73
2023-03-26T16:09:17.324Z,13.74
2023-03-26T16:11:57.296Z,13.74
2023-03-26T16:14:36.288Z,13.73
2023-03-26T16:17:06.757Z,13.68
2023-03-26T16:19:52.131Z,13.61
2023-03-26T16:22:56.030Z,13.58
2023-03-26T16:25:29.737Z,13.55
2023-03-26T16:28:35.615Z,13.46
2023-03-26T16:31:37.677Z,13.44
2023-03-26T16:34:12.230Z,13.45
2023-03-26T16:36:50.062Z,13.28
2023-03-26T16:39:19.260Z,13.31
2023-03-26T16:41:50.625Z,13.15
2023-03-26T16:44:48.682Z,13.21
2023-03-26T16:47:32.895Z,13.09
2023-03-26T16:50:26.241Z,13.06
2023-03-26T16:53:17.730Z,13.04
2023-03-26T16:55:59.175Z,12.94
2023-03-26T16:58:58.818Z,12.96
2023-03-26T17:02:08.677Z,13.01
2023-03-26T17:04:37.968Z,13.09
2023-03-26T17:07:08.972Z,13.04
2023-03-26T17:10:26.207Z,13.01
2023-03-26T17:12:54.744Z,12.90
2023-03-26T17:16:08.145Z,12.83
2023-03-26T17:18:36.783Z,12.83
2023-03-26T17:21:17.688Z,12.74
2023-03-26T17:24:16.269Z,12.82
2023-03-26T17:27:24.434Z,12.78
2023-03-26T17:30:32.724Z,12.83
2023-03-26T17:33:02.396Z,12.83
2023-03-26T17:35:43.926Z,12.86
2023-03-26T17:38:19.386Z,12.96
2023-03-26T17:40:55.044Z,12.99
2023-03-26T17:43:56.609Z,12.94
2023-03-26T17:46:36.442Z,12.90
2023-03-26T17:49:33.670Z,12.88
2023-03-26T17:52:06.034Z,12.92
2023-03-26T17:55:01.893Z,12.86
2023-03-26T17:57:40.349Z,12.87
2023-03-26T18:00:25.561Z,12.86
2023-03-26T18:03:01.557Z,12.83
2023-03-26T18:05:30.597Z,12.76
2023-03-26T18:08:23.041Z,12.75
2023-03-26T18:11:14.705Z,12.74
2023-03-26T18:13:46.165Z,12.78
2023-03-26T18:16:17.314Z,12.77
2023-03-26T18:18:46.418Z,12.78
2023-03-26T18:21:29.206Z,12.80
2023-03-26T18:23:59.538Z,12.65
2023-03-26T18:26:38.081Z,12.73
2023-03-26T18:29:18.577Z,12.75
2023-03-26T18:31:49.349Z,12.70
2023-03-26T18:34:19.289Z,12.74
2023-03-26T18:37:21.408Z,12.70
2023-03-26T18:40:00.989Z,12.77
2023-03-26T18:42:30.679Z,12.74
2023-03-26T18:45:02.086Z,12.77
2023-03-26T18:47:32.485Z,12.80
2023-03-26T18:50:01.122Z,12.75
2023-03-26T18:52:30.022Z,12.78
2023-03-26T18:54:59.527Z,12.71
2023-03-26T18:57:28.827Z,12.65
2023-03-26T19:00:09.877Z,12.58
2023-03-26T19:02:38.641Z,12.55
2023-03-26T19:05:07.874Z,12.54
2023-03-26T19:07:38.008Z,12.61
2023-03-26T19:10:15.604Z,12.59
2023-03-26T19:12:46.709Z,12.46
2023-03-26T19:15:17.486Z,12.47
2023-03-26T19:17:56.801Z,12.38
2023-03-26T19:20:27.590Z,12.47
2023-03-26T19:22:58.643Z,12.58
2023-03-26T19:25:33.727Z,12.66
2023-03-26T19:28:05.706Z,12.74
2023-03-26T19:30:36.601Z,12.76
2023-03-26T19:33:13.861Z,12.82
2023-03-26T19:35:46.130Z,12.82
2023-03-26T19:38:25.814Z,12.70
2023-03-26T19:40:59.138Z,12.71
2023-03-26T19:43:29.025Z,12.77
2023-03-26T19:46:00.195Z,12.67
2023-03-26T19:48:46.804Z,12.77
2023-03-26T19:51:31.791Z,12.84
2023-03-26T19:54:14.125Z,12.91
2023-03-26T19:56:43.735Z,12.91
2023-03-26T19:59:14.403Z,12.85
2023-03-26T20:01:43.085Z,12.85
2023-03-26T20:04:12.082Z,12.84
2023-03-26T20:06:44.135Z,12.85
2023-03-26T20:09:14.479Z,12.85
2023-03-26T20:11:44.288Z,12.86
2023-03-26T20:14:21.648Z,12.86
2023-03-26T20:16:50.311Z,12.90
2023-03-26T20:19:19.328Z,12.89
2023-03-26T20:21:56.017Z,12.80
2023-03-26T20:24:25.623Z,12.84
2023-03-26T20:26:54.200Z,12.86
2023-03-26T20:29:28.882Z,12.88
2023-03-26T20:31:58.063Z,12.87
2023-03-26T20:34:28.135Z,12.85
2023-03-26T20:37:01.338Z,12.86
2023-03-26T20:39:31.163Z,12.87
2023-03-26T20:42:00.938Z,12.82
2023-03-26T20:44:30.981Z,12.84
2023-03-26T20:47:00.640Z,12.83
2023-03-26T20:49:32.608Z,12.82
2023-03-26T20:52:01.259Z,12.83
2023-03-26T20:54:31.299Z,12.83
2023-03-26T20:57:00.179Z,12.83
2023-03-26T20:59:33.359Z,12.84
2023-03-26T21:02:02.313Z,12.91
2023-03-26T21:04:32.393Z,12.82
2023-03-26T21:07:11.116Z,12.75
2023-03-26T21:09:47.806Z,12.77
2023-03-26T21:12:29.793Z,12.74
2023-03-26T21:15:07.223Z,12.75
2023-03-26T21:17:40.859Z,12.76
2023-03-26T21:20:14.160Z,12.74
2023-03-26T21:23:20.533Z,12.80
2023-03-26T21:25:53.374Z,12.87
2023-03-26T21:28:41.823Z,12.83
2023-03-26T21:31:18.752Z,12.82
2023-03-26T21:33:48.029Z,12.80
2023-03-26T21:36:18.309Z,12.76
2023-03-26T21:38:47.582Z,12.80
2023-03-26T21:41:36.099Z,12.81
2023-03-26T21:44:04.801Z,12.82
2023-03-26T21:46:33.665Z,12.84
2023-03-26T21:49:03.388Z,12.83
2023-03-26T21:51:34.156Z,12.87
2023-03-26T21:54:31.048Z,12.91
2023-03-26T21:57:23.156Z,13.03
2023-03-26T22:00:11.751Z,13.05
2023-03-26T22:02:53.460Z,13.03
2023-03-26T22:05:37.313Z,13.02
2023-03-26T22:08:08.316Z,13.05
2023-03-26T22:10:37.333Z,12.98
2023-03-26T22:13:10.841Z,13.01
2023-03-26T22:15:41.093Z,13.07
2023-03-26T22:18:09.714Z,13.07
2023-03-26T22:20:46.783Z,13.12
2023-03-26T22:23:16.777Z,13.09
2023-03-26T22:25:46.219Z,13.09
2023-03-26T22:28:14.832Z,13.09
2023-03-26T22:30:43.359Z,13.13
2023-03-26T22:33:18.086Z,13.20
2023-03-26T22:35:47.691Z,13.31
2023-03-26T22:38:17.365Z,13.31
2023-03-26T22:40:46.905Z,13.31
2023-03-26T22:43:16.196Z,13.23
2023-03-26T22:45:51.471Z,13.25
2023-03-26T22:48:20.481Z,13.31
2023-03-26T22:51:06.550Z,13.30
2023-03-26T22:53:36.183Z,13.29
2023-03-26T22:56:05.445Z,13.23
2023-03-26T22:58:35.895Z,13.26
2023-03-26T23:01:12.541Z,13.30
2023-03-26T23:03:41.612Z,13.26
2023-03-26T23:06:12.300Z,13.27
2023-03-26T23:08:41.444Z,13.30
2023-03-26T23:11:14.655Z,13.32
2023-03-26T23:13:43.921Z,13.38
2023-03-26T23:16:13.332Z,13.35
2023-03-26T23:18:42.432Z,13.37
2023-03-26T23:21:16.196Z,13.40
2023-03-26T23:23:44.733Z,13.41
2023-03-26T23:26:14.969Z,13.44
2023-03-26T23:28:45.253Z,13.33
2023-03-26T23:31:14.388Z,13.27
2023-03-26T23:33:50.556Z,13.29
2023-03-26T23:36:20.018Z,13.32
2023-03-26T23:38:49.224Z,13.37
2023-03-26T23:41:19.944Z,13.40
2023-03-26T23:43:55.689Z,13.43
2023-03-26T23:46:30.956Z,13.35
2023-03-26T23:49:02.673Z,13.30
2023-03-26T23:51:33.796Z,13.32
2023-03-26T23:54:02.678Z,13.31
2023-03-26T23:56:32.639Z,13.33
2023-03-26T23:59:01.889Z,13.39
